createdAt,value
2022-12-18T00:01:27.778Z,-4.42
2022-12-18T00:03:57.511Z,-4.31
2022-12-18T00:06:26.599Z,-4.43
2022-12-18T00:08:54.690Z,-4.57
2022-12-18T00:11:25.236Z,-4.47
2022-12-18T00:13:53.460Z,-4.49
2022-12-18T00:16:23.096Z,-4.61
2022-12-18T00:18:56.845Z,-4.64
2022-12-18T00:21:24.614Z,-4.64
2022-12-18T00:23:52.720Z,-4.70
2022-12-18T00:26:22.544Z,-4.62
2022-12-18T00:28:50.669Z,-4.62
2022-12-18T00:31:21.704Z,-4.81
2022-12-18T00:33:52.630Z,-4.67
2022-12-18T00:36:25.902Z,-4.64
2022-12-18T00:38:54.992Z,-4.80
2022-12-18T00:41:36.879Z,-4.84
2022-12-18T00:44:05.420Z,-4.81
2022-12-18T00:46:33.651Z,-4.88
2022-12-18T00:49:01.207Z,-4.90
2022-12-18T00:51:28.974Z,-4.88
2022-12-18T00:53:56.911Z,-5.19
2022-12-18T00:56:25.168Z,-5.02
2022-12-18T00:58:52.775Z,-5.13
2022-12-18T01:01:20.799Z,-5.03
2022-12-18T01:03:48.659Z,-5.06
2022-12-18T01:06:17.728Z,-5.09
2022-12-18T01:08:46.177Z,-4.99
2022-12-18T01:11:17.060Z,-5.00
2022-12-18T01:13:45.372Z,-5.02
2022-12-18T01:16:17.909Z,-4.97
2022-12-18T01:18:45.727Z,-4.96
2022-12-18T01:21:18.348Z,-5.01
2022-12-18T01:23:45.865Z,-5.07
2022-12-18T01:26:18.372Z,-5.00
2022-12-18T01:28:46.018Z,-5.15
2022-12-18T01:31:21.269Z,-5.11
2022-12-18T01:33:48.853Z,-5.23
2022-12-18T01:36:18.644Z,-5.28
2022-12-18T01:38:46.583Z,-5.22
2022-12-18T01:41:14.764Z,-5.27
2022-12-18T01:43:50.478Z,-5.34
2022-12-18T01:46:19.877Z,-5.34
2022-12-18T01:48:51.187Z,-5.26
2022-12-18T01:51:19.206Z,-5.22
2022-12-18T01:53:49.791Z,-5.21
2022-12-18T01:56:20.744Z,-5.43
2022-12-18T01:59:12.459Z,-5.29
2022-12-18T02:01:41.034Z,-5.34
2022-12-18T02:04:26.830Z,-5.31
2022-12-18T02:07:24.124Z,-5.38
2022-12-18T02:10:08.014Z,-5.34
2022-12-18T02:12:49.670Z,-5.37
2022-12-18T02:15:59.635Z,-5.28
2022-12-18T02:18:32.390Z,-5.28
2022-12-18T02:21:33.841Z,-5.27
2022-12-18T02:24:04.320Z,-5.25
2022-12-18T02:26:38.811Z,-5.22
2022-12-18T02:29:14.093Z,-5.24
2022-12-18T02:31:47.022Z,-5.29
2022-12-18T02:34:16.023Z,-5.32
2022-12-18T02:36:46.139Z,-5.40
2022-12-18T02:39:15.757Z,-5.41
2022-12-18T02:41:43.634Z,-5.48
2022-12-18T02:44:14.055Z,-5.53
2022-12-18T02:46:44.676Z,-5.63
2022-12-18T02:49:23.899Z,-5.60
2022-12-18T02:52:19.131Z,-5.56
2022-12-18T02:55:03.598Z,-5.70
2022-12-18T02:57:51.225Z,-5.73
2022-12-18T03:00:24.032Z,-5.78
2022-12-18T03:03:07.421Z,-5.88
2022-12-18T03:05:47.928Z,-5.85
2022-12-18T03:08:20.953Z,-5.88
2022-12-18T03:10:55.756Z,-5.89
2022-12-18T03:13:59.321Z,-5.93
2022-12-18T03:16:33.169Z,-5.92
2022-12-18T03:19:05.434Z,-5.86
2022-12-18T03:21:41.068Z,-5.89
2022-12-18T03:24:11.640Z,-5.96
2022-12-18T03:26:45.773Z,-6.11
2022-12-18T03:29:21.856Z,-6.22
2022-12-18T03:31:55.923Z,-6.23
2022-12-18T03:34:34.527Z,-6.22
2022-12-18T03:37:03.271Z,-6.23
2022-12-18T03:39:31.135Z,-6.23
2022-12-18T03:42:01.624Z,-6.24
2022-12-18T03:44:35.809Z,-6.29
2022-12-18T03:47:06.240Z,-6.25
2022-12-18T03:49:51.828Z,-6.28
2022-12-18T03:52:28.811Z,-6.27
2022-12-18T03:54:58.876Z,-6.33
2022-12-18T03:57:32.169Z,-6.32
2022-12-18T04:00:05.591Z,-6.38
2022-12-18T04:02:34.394Z,-6.35
2022-12-18T04:05:06.772Z,-6.41
2022-12-18T04:07:35.188Z,-6.43
2022-12-18T04:10:04.311Z,-6.42
2022-12-18T04:12:32.402Z,-6.44
2022-12-18T04:14:59.911Z,-6.45
2022-12-18T04:17:27.440Z,-6.47
2022-12-18T04:19:54.948Z,-6.48
2022-12-18T04:22:22.509Z,-6.45
2022-12-18T04:24:49.964Z,-6.44
2022-12-18T04:27:17.492Z,-6.47
2022-12-18T04:29:44.991Z,-6.49
2022-12-18T04:32:12.602Z,-6.47
2022-12-18T04:34:40.087Z,-6.51
2022-12-18T04:37:07.800Z,-6.56
2022-12-18T04:39:36.700Z,-6.56
2022-12-18T04:42:04.541Z,-6.57
2022-12-18T04:44:32.068Z,-6.54
2022-12-18T04:46:59.600Z,-6.59
2022-12-18T04:49:27.441Z,-6.54
2022-12-18T04:51:54.961Z,-6.54
2022-12-18T04:54:22.932Z,-6.57
2022-12-18T04:56:51.395Z,-6.58
2022-12-18T04:59:18.918Z,-6.61
2022-12-18T05:01:46.844Z,-6.68
2022-12-18T05:04:14.459Z,-6.67
2022-12-18T05:06:41.972Z,-6.66
2022-12-18T05:09:09.624Z,-6.67
2022-12-18T05:11:37.154Z,-6.75
2022-12-18T05:14:04.841Z,-6.70
2022-12-18T05:16:32.563Z,-6.75
2022-12-18T05:19:00.111Z,-6.77
2022-12-18T05:21:27.672Z,-6.80
2022-12-18T05:23:55.277Z,-6.78
2022-12-18T05:26:22.846Z,-6.79
2022-12-18T05:28:50.424Z,-6.84
2022-12-18T05:31:18.066Z,-6.83
2022-12-18T05:33:45.664Z,-6.81
2022-12-18T05:36:13.317Z,-6.83
2022-12-18T05:38:41.287Z,-6.85
2022-12-18T05:41:09.509Z,-6.81
2022-12-18T05:43:39.442Z,-6.88
2022-12-18T05:46:09.531Z,-6.81
2022-12-18T05:48:37.323Z,-6.81
2022-12-18T05:51:09.941Z,-6.85
2022-12-18T05:53:38.725Z,-6.82
2022-12-18T05:56:09.315Z,-6.88
2022-12-18T05:58:38.017Z,-6.83
2022-12-18T06:01:27.337Z,-6.81
2022-12-18T06:03:55.327Z,-6.83
2022-12-18T06:06:28.700Z,-6.82
2022-12-18T06:08:57.481Z,-6.80
2022-12-18T06:11:27.868Z,-6.79
2022-12-18T06:13:58.856Z,-6.78
2022-12-18T06:16:27.839Z,-6.77
2022-12-18T06:18:58.538Z,-6.77
2022-12-18T06:21:26.572Z,-6.79
2022-12-18T06:23:54.188Z,-6.79
2022-12-18T06:26:27.624Z,-6.76
2022-12-18T06:28:55.835Z,-6.77
2022-12-18T06:31:23.355Z,-6.80
2022-12-18T06:33:50.913Z,-6.82
2022-12-18T06:36:18.568Z,-6.84
2022-12-18T06:38:46.535Z,-6.83
2022-12-18T06:41:20.883Z,-6.75
2022-12-18T06:43:48.618Z,-6.76
2022-12-18T06:46:16.478Z,-6.79
2022-12-18T06:48:44.278Z,-6.71
2022-12-18T06:51:17.632Z,-6.69
2022-12-18T06:53:45.211Z,-6.71
2022-12-18T06:56:12.846Z,-6.68
2022-12-18T06:58:41.256Z,-6.66
2022-12-18T07:01:12.256Z,-6.66
2022-12-18T07:03:42.506Z,-6.65
2022-12-18T07:06:22.809Z,-6.64
2022-12-18T07:08:51.251Z,-6.67
2022-12-18T07:11:19.772Z,-6.64
2022-12-18T07:13:47.428Z,-6.63
2022-12-18T07:16:25.147Z,-6.64
2022-12-18T07:18:54.110Z,-6.65
2022-12-18T07:21:22.583Z,-6.70
2022-12-18T07:23:50.084Z,-6.71
2022-12-18T07:26:20.263Z,-6.72
2022-12-18T07:28:48.604Z,-6.72
2022-12-18T07:31:19.391Z,-6.73
2022-12-18T07:33:48.076Z,-6.71
2022-12-18T07:36:16.456Z,-6.75
2022-12-18T07:38:44.063Z,-6.71
2022-12-18T07:41:14.118Z,-6.73
2022-12-18T07:43:43.222Z,-6.72
2022-12-18T07:46:13.466Z,-6.72
2022-12-18T07:48:42.106Z,-6.67
2022-12-18T07:51:10.942Z,-6.68
2022-12-18T07:53:39.298Z,-6.65
2022-12-18T07:56:29.508Z,-6.64
2022-12-18T07:58:58.708Z,-6.68
2022-12-18T08:01:26.730Z,-6.62
2022-12-18T08:03:54.443Z,-6.58
2022-12-18T08:06:23.238Z,-6.52
2022-12-18T08:08:56.712Z,-6.44
2022-12-18T08:11:24.568Z,-6.39
2022-12-18T08:13:52.159Z,-6.32
2022-12-18T08:16:20.308Z,-6.33
2022-12-18T08:18:48.409Z,-6.27
2022-12-18T08:21:21.834Z,-6.20
2022-12-18T08:23:51.108Z,-6.17
2022-12-18T08:26:19.823Z,-6.14
2022-12-18T08:28:48.795Z,-6.09
2022-12-18T08:31:18.686Z,-6.02
2022-12-18T08:33:46.300Z,-6.02
2022-12-18T08:36:14.520Z,-6.02
2022-12-18T08:38:41.997Z,-5.99
2022-12-18T08:41:13.647Z,-5.96
2022-12-18T08:43:59.123Z,-5.95
2022-12-18T08:46:28.096Z,-5.89
2022-12-18T08:48:56.596Z,-5.83
2022-12-18T08:51:24.179Z,-5.77
2022-12-18T08:53:51.813Z,-5.73
2022-12-18T08:56:19.925Z,-5.60
2022-12-18T08:58:47.558Z,-5.54
2022-12-18T09:01:15.820Z,-5.52
2022-12-18T09:03:44.073Z,-5.46
2022-12-18T09:06:16.642Z,-5.44
2022-12-18T09:08:47.792Z,-5.37
2022-12-18T09:11:22.778Z,-5.32
2022-12-18T09:13:50.582Z,-5.24
2022-12-18T09:16:18.860Z,-5.21
2022-12-18T09:18:46.500Z,-5.16
2022-12-18T09:21:20.240Z,-5.11
2022-12-18T09:23:55.593Z,-5.06
2022-12-18T09:26:24.610Z,-5.25
2022-12-18T09:28:52.621Z,-4.98
2022-12-18T09:31:23.183Z,-4.96
2022-12-18T09:33:51.037Z,-4.95
2022-12-18T09:36:19.944Z,-4.88
2022-12-18T09:38:49.363Z,-4.84
2022-12-18T09:41:25.976Z,-4.76
2022-12-18T09:43:58.844Z,-4.76
2022-12-18T09:46:34.176Z,-4.69
2022-12-18T09:49:08.081Z,-4.65
2022-12-18T09:51:42.200Z,-4.59
2022-12-18T09:54:17.946Z,-4.49
2022-12-18T09:56:45.917Z,-4.49
2022-12-18T09:59:27.585Z,-4.43
2022-12-18T10:01:56.055Z,-4.42
2022-12-18T10:04:23.926Z,-4.33
2022-12-18T10:07:14.229Z,-4.30
2022-12-18T10:09:41.647Z,-4.17
2022-12-18T10:12:11.936Z,-4.12
2022-12-18T10:15:08.964Z,-4.06
2022-12-18T10:17:48.293Z,-3.95
2022-12-18T10:20:26.458Z,-4.00
2022-12-18T10:23:25.375Z,-3.90
2022-12-18T10:26:06.777Z,-3.88
2022-12-18T10:28:37.787Z,-3.78
2022-12-18T10:31:08.423Z,-3.69
2022-12-18T10:33:36.570Z,-3.72
2022-12-18T10:36:04.353Z,-3.80
2022-12-18T10:38:33.739Z,-3.65
2022-12-18T10:41:02.935Z,-3.68
2022-12-18T10:43:31.651Z,-3.60
2022-12-18T10:46:11.246Z,-3.51
2022-12-18T10:48:53.801Z,-3.56
2022-12-18T10:51:34.335Z,-3.54
2022-12-18T10:54:22.103Z,-3.38
2022-12-18T10:56:50.091Z,-3.39
2022-12-18T10:59:20.158Z,-3.33
2022-12-18T11:01:55.898Z,-3.33
2022-12-18T11:04:25.246Z,-3.16
2022-12-18T11:07:04.126Z,-3.11
2022-12-18T11:09:34.166Z,-3.05
2022-12-18T11:12:07.005Z,-3.06
2022-12-18T11:14:46.886Z,-2.96
2022-12-18T11:17:25.888Z,-2.91
2022-12-18T11:19:59.503Z,-2.84
2022-12-18T11:22:30.413Z,-2.81
2022-12-18T11:28:04.811Z,-2.73
2022-12-18T11:30:33.577Z,-2.78
2022-12-18T11:33:24.008Z,-2.62
2022-12-18T11:35:59.264Z,-2.59
2022-12-18T11:38:37.125Z,-2.58
2022-12-18T11:41:16.550Z,-2.56
2022-12-18T11:44:01.575Z,-2.58
2022-12-18T11:46:45.398Z,-2.51
2022-12-18T11:49:36.693Z,-2.39
2022-12-18T11:52:12.357Z,-2.40
2022-12-18T11:54:39.880Z,-2.30
2022-12-18T11:57:17.067Z,-2.38
2022-12-18T12:00:03.503Z,-2.34
2022-12-18T12:02:55.720Z,-2.38
2022-12-18T12:05:41.802Z,-2.29
2022-12-18T12:08:21.202Z,-2.25
2022-12-18T12:11:14.766Z,-2.17
2022-12-18T12:14:11.321Z,-2.17
2022-12-18T12:17:01.038Z,-2.12
2022-12-18T12:19:34.526Z,-2.08
2022-12-18T12:22:13.607Z,-2.05
2022-12-18T12:24:53.124Z,-2.05
2022-12-18T12:27:25.927Z,-2.11
2022-12-18T12:30:13.350Z,-2.16
2022-12-18T12:33:04.082Z,-2.04
2022-12-18T12:35:47.198Z,-2.10
2022-12-18T12:38:27.341Z,-1.99
2022-12-18T12:41:27.771Z,-2.03
2022-12-18T12:43:58.794Z,-1.97
2022-12-18T12:46:28.447Z,-2.06
2022-12-18T12:49:04.832Z,-1.96
2022-12-18T12:51:41.711Z,-1.89
2022-12-18T12:54:19.174Z,-1.87
2022-12-18T12:57:12.856Z,-1.92
2022-12-18T12:59:49.962Z,-1.84
2022-12-18T13:02:17.411Z,-1.81
2022-12-18T13:04:58.891Z,-1.74
2022-12-18T13:07:34.751Z,-1.75
2022-12-18T13:10:20.767Z,-1.62
2022-12-18T13:12:58.380Z,-1.66
2022-12-18T13:15:49.439Z,-1.64
2022-12-18T13:18:21.658Z,-1.64
2022-12-18T13:21:05.928Z,-1.62
2022-12-18T13:23:37.596Z,-1.59
2022-12-18T13:26:09.081Z,-1.56
2022-12-18T13:28:48.883Z,-1.59
2022-12-18T13:31:36.979Z,-1.62
2022-12-18T13:34:29.775Z,-1.58
2022-12-18T13:37:36.556Z,-1.58
2022-12-18T13:40:04.539Z,-1.71
2022-12-18T13:42:49.507Z,-1.61
2022-12-18T13:45:48.237Z,-1.66
2022-12-18T13:48:24.578Z,-1.72
2022-12-18T13:51:00.450Z,-1.72
2022-12-18T13:53:32.357Z,-1.67
2022-12-18T13:56:00.489Z,-1.63
2022-12-18T13:58:28.257Z,-1.64
2022-12-18T14:00:56.251Z,-1.70
2022-12-18T14:03:29.478Z,-1.66
2022-12-18T14:06:08.776Z,-1.64
2022-12-18T14:08:43.043Z,-1.73
2022-12-18T14:11:25.382Z,-1.63
2022-12-18T14:13:54.554Z,-1.60
2022-12-18T14:16:22.396Z,-1.59
2022-12-18T14:18:55.354Z,-1.53
2022-12-18T14:21:28.108Z,-1.52
2022-12-18T14:24:26.083Z,-1.62
2022-12-18T14:26:53.831Z,-1.57
2022-12-18T14:29:27.645Z,-1.54
2022-12-18T14:32:16.599Z,-1.62
2022-12-18T14:34:46.954Z,-1.56
2022-12-18T14:37:17.258Z,-1.57
2022-12-18T14:40:10.502Z,-1.49
2022-12-18T14:42:39.359Z,-1.52
2022-12-18T14:45:45.408Z,-1.52
2022-12-18T14:48:14.260Z,-1.56
2022-12-18T14:50:44.919Z,-1.59
2022-12-18T14:53:25.748Z,-1.59
2022-12-18T14:55:53.475Z,-1.56
2022-12-18T14:58:21.366Z,-1.55
2022-12-18T15:00:49.093Z,-1.54
2022-12-18T15:03:22.381Z,-1.57
2022-12-18T15:05:50.966Z,-1.54
2022-12-18T15:08:38.826Z,-1.53
2022-12-18T15:11:30.702Z,-1.54
2022-12-18T15:14:01.664Z,-1.50
2022-12-18T15:16:29.541Z,-1.52
2022-12-18T15:18:57.151Z,-1.52
2022-12-18T15:21:25.655Z,-1.54
2022-12-18T15:23:54.184Z,-1.55
2022-12-18T15:26:23.861Z,-1.58
2022-12-18T15:28:59.498Z,-1.69
2022-12-18T15:31:32.692Z,-1.60
2022-12-18T15:34:00.729Z,-1.56
2022-12-18T15:36:32.096Z,-1.58
2022-12-18T15:39:05.422Z,-1.58
2022-12-18T15:41:36.693Z,-1.59
2022-12-18T15:44:16.944Z,-1.67
2022-12-18T15:46:44.602Z,-1.61
2022-12-18T15:49:12.292Z,-1.57
2022-12-18T15:51:41.426Z,-1.59
2022-12-18T15:54:15.378Z,-1.60
2022-12-18T15:57:00.683Z,-1.60
2022-12-18T15:59:28.478Z,-1.63
2022-12-18T16:01:57.166Z,-1.53
2022-12-18T16:04:26.384Z,-1.58
2022-12-18T16:09:41.966Z,-1.61
2022-12-18T16:12:17.603Z,-1.58
2022-12-18T16:14:45.612Z,-1.55
2022-12-18T16:17:14.670Z,-1.56
2022-12-18T16:19:42.192Z,-1.58
2022-12-18T16:22:25.776Z,-1.55
2022-12-18T16:24:54.823Z,-1.52
2022-12-18T16:27:23.743Z,-1.56
2022-12-18T16:29:52.028Z,-1.57
2022-12-18T16:32:21.965Z,-1.52
2022-12-18T16:34:50.965Z,-1.54
2022-12-18T16:37:18.540Z,-1.51
2022-12-18T16:39:46.227Z,-1.51
2022-12-18T16:42:21.645Z,-1.46
2022-12-18T16:44:50.968Z,-1.49
2022-12-18T16:47:19.038Z,-1.47
2022-12-18T16:49:47.024Z,-1.49
2022-12-18T16:52:15.327Z,-1.49
2022-12-18T16:54:42.832Z,-1.50
2022-12-18T16:57:15.196Z,-1.46
2022-12-18T16:59:43.061Z,-1.49
2022-12-18T17:02:23.381Z,-1.48
2022-12-18T17:04:53.951Z,-1.47
2022-12-18T17:07:21.507Z,-1.53
2022-12-18T17:09:50.397Z,-1.50
2022-12-18T17:12:18.897Z,-1.41
2022-12-18T17:14:46.385Z,-1.43
2022-12-18T17:17:23.331Z,-1.45
2022-12-18T17:19:51.803Z,-1.40
2022-12-18T17:22:19.431Z,-1.45
2022-12-18T17:24:48.256Z,-1.40
2022-12-18T17:27:16.536Z,-1.40
2022-12-18T17:29:47.839Z,-1.41
2022-12-18T17:32:17.335Z,-1.41
2022-12-18T17:34:45.202Z,-1.37
2022-12-18T17:37:12.751Z,-1.38
2022-12-18T17:39:40.517Z,-1.32
2022-12-18T17:42:14.886Z,-1.31
2022-12-18T17:44:44.552Z,-1.32
2022-12-18T17:47:13.650Z,-1.26
2022-12-18T17:49:41.415Z,-1.30
2022-12-18T17:52:09.041Z,-1.27
2022-12-18T17:54:39.434Z,-1.24
2022-12-18T17:57:07.007Z,-1.23
2022-12-18T17:59:34.582Z,-1.14
2022-12-18T18:02:02.294Z,-1.20
2022-12-18T18:04:30.500Z,-1.22
2022-12-18T18:06:57.966Z,-1.25
2022-12-18T18:09:25.578Z,-1.32
2022-12-18T18:12:11.249Z,-1.20
2022-12-18T18:14:38.933Z,-1.13
2022-12-18T18:17:06.653Z,-1.13
2022-12-18T18:19:34.842Z,-1.11
2022-12-18T18:22:03.642Z,-1.08
2022-12-18T18:24:31.301Z,-1.16
2022-12-18T18:26:59.986Z,-1.11
2022-12-18T18:29:30.319Z,-1.11
2022-12-18T18:31:58.151Z,-1.06
2022-12-18T18:34:30.671Z,-1.07
2022-12-18T18:36:58.176Z,-1.04
2022-12-18T18:39:26.362Z,-1.03
2022-12-18T18:41:53.978Z,-0.99
2022-12-18T18:44:24.883Z,-0.99
2022-12-18T18:46:59.282Z,-1.03
2022-12-18T18:49:28.513Z,-1.03
2022-12-18T18:51:57.258Z,-1.03
2022-12-18T18:54:25.966Z,-1.02
2022-12-18T18:57:19.296Z,-0.98
2022-12-18T18:59:41.429Z,-0.95
2022-12-18T19:02:13.634Z,-1.03
2022-12-18T19:04:46.214Z,-0.96
2022-12-18T19:07:18.977Z,-1.01
2022-12-18T19:10:02.057Z,-0.96
2022-12-18T19:12:50.105Z,-0.91
2022-12-18T19:15:17.718Z,-0.91
2022-12-18T19:17:47.444Z,-0.92
2022-12-18T19:20:15.821Z,-0.88
2022-12-18T19:22:43.343Z,-0.86
2022-12-18T19:25:13.556Z,-0.87
2022-12-18T19:27:42.643Z,-0.92
2022-12-18T19:30:11.046Z,-0.86
2022-12-18T19:32:39.768Z,-0.89
2022-12-18T19:35:07.576Z,-0.94
2022-12-18T19:37:36.049Z,-0.95
2022-12-18T19:40:06.673Z,-0.93
2022-12-18T19:42:40.065Z,-1.07
2022-12-18T19:45:08.014Z,-0.95
2022-12-18T19:47:35.567Z,-0.96
2022-12-18T19:50:03.270Z,-0.93
2022-12-18T19:52:30.901Z,-0.96
2022-12-18T19:54:58.491Z,-0.93
2022-12-18T19:57:25.944Z,-0.94
2022-12-18T19:59:53.524Z,-0.96
2022-12-18T20:02:21.104Z,-1.00
2022-12-18T20:04:49.718Z,-1.00
2022-12-18T20:07:18.204Z,-0.93
2022-12-18T20:09:46.058Z,-0.95
2022-12-18T20:12:14.458Z,-0.97
2022-12-18T20:14:42.232Z,-0.91
2022-12-18T20:17:10.432Z,-0.95
2022-12-18T20:19:38.157Z,-0.94
2022-12-18T20:22:05.755Z,-0.95
2022-12-18T20:24:33.720Z,-0.87
2022-12-18T20:27:01.308Z,-0.88
2022-12-18T20:29:29.380Z,-0.89
2022-12-18T20:31:57.040Z,-0.88
2022-12-18T20:34:25.493Z,-0.86
2022-12-18T20:36:53.672Z,-0.83
2022-12-18T20:39:22.146Z,-0.85
2022-12-18T20:41:50.992Z,-0.87
2022-12-18T20:44:23.619Z,-0.91
2022-12-18T20:46:57.308Z,-0.87
2022-12-18T20:49:26.449Z,-0.89
2022-12-18T20:51:56.092Z,-0.92
2022-12-18T20:54:26.051Z,-0.96
2022-12-18T20:56:53.587Z,-1.00
2022-12-18T20:59:22.975Z,-0.94
2022-12-18T21:01:53.739Z,-0.96
2022-12-18T21:04:22.561Z,-0.97
2022-12-18T21:06:55.858Z,-0.91
2022-12-18T21:09:28.108Z,-0.86
2022-12-18T21:12:18.874Z,-0.88
2022-12-18T21:14:46.393Z,-0.91
2022-12-18T21:17:16.188Z,-0.89
2022-12-18T21:19:43.707Z,-0.93
2022-12-18T21:22:11.948Z,-0.87
2022-12-18T21:24:39.573Z,-0.84
2022-12-18T21:27:07.172Z,-0.84
2022-12-18T21:29:34.910Z,-0.84
2022-12-18T21:32:06.183Z,-0.77
2022-12-18T21:34:34.212Z,-0.83
2022-12-18T21:37:02.959Z,-0.86
2022-12-18T21:39:31.580Z,-0.91
2022-12-18T21:42:17.419Z,-0.82
2022-12-18T21:44:47.913Z,-0.80
2022-12-18T21:47:22.126Z,-0.81
2022-12-18T21:49:57.559Z,-0.85
2022-12-18T21:52:31.675Z,-0.83
2022-12-18T21:55:07.921Z,-0.85
2022-12-18T21:57:36.556Z,-0.84
2022-12-18T22:00:05.616Z,-0.77
2022-12-18T22:02:33.946Z,-0.81
2022-12-18T22:05:01.660Z,-0.84
2022-12-18T22:07:29.735Z,-0.84
2022-12-18T22:09:57.314Z,-0.84
2022-12-18T22:12:43.643Z,-0.82
2022-12-18T22:15:15.512Z,-0.80
2022-12-18T22:17:49.484Z,-0.81
2022-12-18T22:20:17.186Z,-0.79
2022-12-18T22:22:44.778Z,-0.80
2022-12-18T22:25:12.767Z,-0.80
2022-12-18T22:27:40.253Z,-0.77
2022-12-18T22:30:08.289Z,-0.76
2022-12-18T22:32:38.596Z,-0.76
2022-12-18T22:35:14.305Z,-0.75
2022-12-18T22:37:45.934Z,-0.80
2022-12-18T22:40:39.945Z,-0.69
2022-12-18T22:43:07.528Z,-0.70
2022-12-18T22:45:38.389Z,-0.71
2022-12-18T22:48:06.762Z,-0.70
2022-12-18T22:50:34.481Z,-0.67
2022-12-18T22:53:02.031Z,-0.68
2022-12-18T22:55:29.618Z,-0.66
2022-12-18T22:57:57.156Z,-0.68
2022-12-18T23:00:24.891Z,-0.62
2022-12-18T23:02:59.929Z,-0.66
2022-12-18T23:05:29.424Z,-0.60
2022-12-18T23:07:56.982Z,-0.57
2022-12-18T23:10:24.520Z,-0.58
2022-12-18T23:12:52.081Z,-0.55
2022-12-18T23:15:19.863Z,-0.55
2022-12-18T23:17:55.500Z,-0.58
2022-12-18T23:20:23.040Z,-0.59
2022-12-18T23:22:50.500Z,-0.54
2022-12-18T23:25:18.174Z,-0.49
2022-12-18T23:27:45.829Z,-0.51
2022-12-18T23:30:13.805Z,-0.49
2022-12-18T23:32:41.308Z,-0.48
2022-12-18T23:35:09.277Z,-0.48
2022-12-18T23:38:01.034Z,-0.43
2022-12-18T23:40:26.140Z,-0.45
2022-12-18T23:42:53.628Z,-0.46
2022-12-18T23:45:21.173Z,-0.42
2022-12-18T23:47:50.876Z,-0.41
2022-12-18T23:50:18.994Z,-0.41
2022-12-18T23:52:49.686Z,-0.43
2022-12-18T23:55:17.305Z,-0.41
2022-12-18T23:57:44.805Z,-0.36
